MMMX

Licenciado Benito Juarez International Airport

Mexico City, Mexico
TAF MMMX 160435Z 1606/1712 03005KT P6SM SCT200 TX20/1621Z TN08/1612Z FM161200 00000KT 5SM HZ FU SCT020 SCT200 FM161800 15008KT P6SM BKN020 BKN200 BECMG 1705/1707 05005KT SCT220
Issued Valid From Valid To
Jan-16 @ 04:35 UTC
(an hour ago)
Jan-16 @ 06:00 UTC
(in 6 minutes)
Jan-17 @ 12:00 UTC
(-1 days ago)
Jan-16 @ 06:00 to Jan-16 @ 12:00
TAF MMMX 160435Z 1606/1712 03005KT P6SM SCT200 TX20/1621Z TN08/1612Z
Wind Visibility Clouds
30° at 5 knots Greater than 6 miles
  • Scattered at 20,000' AGL
From Jan-16 @ 12:00 to Jan-16 @ 18:00
FM161200 00000KT 5SM HZ FU SCT020 SCT200
Visibility Clouds Conditions
5 miles
  • Scattered at 2,000' AGL
  • Scattered at 20,000' AGL
  • Haze
  • Smoke
From Jan-16 @ 18:00 to Jan-17 @ 05:00
FM161800 15008KT P6SM BKN020 BKN200
Wind Visibility Clouds
150° at 8 knots Greater than 6 miles
  • Broken at 2,000' AGL
  • Broken at 20,000' AGL
Becoming Jan-17 @ 05:00 to Jan-17 @ 12:00
BECMG 1705/1707 05005KT SCT220
Wind Visibility Clouds
50° at 5 knots Greater than 6 miles
  • Scattered at 22,000' AGL
TAF MMMX 160435Z 1606/1712 03005KT P6SM SCT200 TX20/1621Z TN08/1612Z FM161200 00000KT 5SM HZ FU SCT020 SCT200 FM161800 15008KT P6SM BKN020 BKN200 BECMG 1705/1707 05005KT SCT220
Issued Jan-16 @ 04:35 UTC
(an hour ago)
Valid From Jan-16 @ 06:00 UTC
(in 6 minutes)
Valid To Jan-17 @ 12:00 UTC
(-1 days ago)
Jan-16 @ 06:00 - Jan-16 @ 12:00
Wind Visibility
30° at 5 knots Greater than 6 miles
Clouds
  • Scattered at 20,000' AGL
From Jan-16 @ 12:00 - Jan-16 @ 18:00
Clouds
  • Scattered at 2,000' AGL
  • Scattered at 20,000' AGL
Conditions
  • Haze
  • Smoke
From Jan-16 @ 18:00 - Jan-17 @ 05:00
Wind Visibility
150° at 8 knots Greater than 6 miles
Clouds
  • Broken at 2,000' AGL
  • Broken at 20,000' AGL
Becoming Jan-17 @ 05:00 - Jan-17 @ 12:00
Wind Visibility
50° at 5 knots Greater than 6 miles
Clouds
  • Scattered at 22,000' AGL